sensor_id;sensor_type;location;lat;lon;timestamp;pressure;altitude;pressure_sealevel;temperature;humidity
40073;BME280;25774;52.256;9.356;2023-01-29T00:01:05;101679.00;;;-0.31;100.00
40073;BME280;25774;52.256;9.356;2023-01-29T00:03:32;101686.00;;;-0.24;100.00
40073;BME280;25774;52.256;9.356;2023-01-29T00:05:58;101684.28;;;-0.20;100.00
40073;BME280;25774;52.256;9.356;2023-01-29T00:08:23;101673.78;;;-0.37;100.00
40073;BME280;25774;52.256;9.356;2023-01-29T00:10:49;101672.81;;;-0.45;100.00
40073;BME280;25774;52.256;9.356;2023-01-29T00:13:14;101671.19;;;-0.37;100.00
40073;BME280;25774;52.256;9.356;2023-01-29T00:15:39;101660.75;;;-0.44;100.00
40073;BME280;25774;52.256;9.356;2023-01-29T00:18:05;101664.06;;;-0.55;100.00
40073;BME280;25774;52.256;9.356;2023-01-29T00:20:30;101671.94;;;-0.47;100.00
40073;BME280;25774;52.256;9.356;2023-01-29T00:22:56;101668.53;;;-0.38;100.00
40073;BME280;25774;52.256;9.356;2023-01-29T00:25:21;101657.28;;;-0.43;100.00
40073;BME280;25774;52.256;9.356;2023-01-29T00:27:47;101669.44;;;-0.38;100.00
40073;BME280;25774;52.256;9.356;2023-01-29T00:30:12;101666.91;;;-0.32;100.00
40073;BME280;25774;52.256;9.356;2023-01-29T00:32:39;101659.94;;;-0.36;100.00
40073;BME280;25774;52.256;9.356;2023-01-29T00:35:05;101676.59;;;-0.11;100.00
40073;BME280;25774;52.256;9.356;2023-01-29T00:37:30;101655.66;;;-0.34;100.00
40073;BME280;25774;52.256;9.356;2023-01-29T00:39:56;101650.50;;;-0.28;100.00
40073;BME280;25774;52.256;9.356;2023-01-29T00:42:21;101669.66;;;-0.15;100.00
40073;BME280;25774;52.256;9.356;2023-01-29T00:45:07;101657.50;;;-0.22;100.00
40073;BME280;25774;52.256;9.356;2023-01-29T00:47:32;101648.69;;;-0.36;100.00
40073;BME280;25774;52.256;9.356;2023-01-29T00:49:59;101659.13;;;-0.30;100.00
40073;BME280;25774;52.256;9.356;2023-01-29T00:52:24;101646.03;;;-0.42;100.00
40073;BME280;25774;52.256;9.356;2023-01-29T00:54:58;101659.16;;;-0.29;100.00
40073;BME280;25774;52.256;9.356;2023-01-29T00:57:26;101670.72;;;0.07;100.00
40073;BME280;25774;52.256;9.356;2023-01-29T00:59:51;101672.50;;;0.19;100.00
40073;BME280;25774;52.256;9.356;2023-01-29T01:02:17;101667.41;;;0.31;100.00
40073;BME280;25774;52.256;9.356;2023-01-29T01:05:01;101647.28;;;-0.02;100.00
40073;BME280;25774;52.256;9.356;2023-01-29T01:07:29;101653.41;;;0.09;100.00
40073;BME280;25774;52.256;9.356;2023-01-29T01:09:54;101653.47;;;0.14;100.00
40073;BME280;25774;52.256;9.356;2023-01-29T01:12:38;101638.72;;;0.10;100.00
40073;BME280;25774;52.256;9.356;2023-01-29T01:15:04;101623.81;;;-0.13;100.00
40073;BME280;25774;52.256;9.356;2023-01-29T01:17:29;101637.88;;;0.15;100.00
40073;BME280;25774;52.256;9.356;2023-01-29T01:19:54;101623.94;;;0.03;100.00
40073;BME280;25774;52.256;9.356;2023-01-29T01:22:20;101627.56;;;0.23;100.00
40073;BME280;25774;52.256;9.356;2023-01-29T01:24:45;101619.75;;;0.21;100.00
40073;BME280;25774;52.256;9.356;2023-01-29T01:27:11;101622.47;;;0.38;100.00
40073;BME280;25774;52.256;9.356;2023-01-29T01:29:38;101624.34;;;0.64;100.00
40073;BME280;25774;52.256;9.356;2023-01-29T01:32:05;101618.19;;;0.45;100.00
40073;BME280;25774;52.256;9.356;2023-01-29T01:34:30;101592.03;;;0.14;100.00
40073;BME280;25774;52.256;9.356;2023-01-29T01:36:56;101595.34;;;-0.05;100.00
40073;BME280;25774;52.256;9.356;2023-01-29T01:39:23;101590.09;;;-0.14;100.00
40073;BME280;25774;52.256;9.356;2023-01-29T01:41:49;101585.81;;;-0.09;100.00
40073;BME280;25774;52.256;9.356;2023-01-29T01:47:21;101597.00;;;-0.13;100.00
40073;BME280;25774;52.256;9.356;2023-01-29T01:49:47;101586.56;;;-0.24;100.00
40073;BME280;25774;52.256;9.356;2023-01-29T01:52:13;101600.59;;;0.06;100.00
40073;BME280;25774;52.256;9.356;2023-01-29T01:54:41;101596.91;;;-0.29;100.00
40073;BME280;25774;52.256;9.356;2023-01-29T01:57:15;101607.47;;;-0.04;100.00
40073;BME280;25774;52.256;9.356;2023-01-29T01:59:46;101588.25;;;-0.26;100.00
40073;BME280;25774;52.256;9.356;2023-01-29T02:02:13;101591.09;;;0.06;100.00
40073;BME280;25774;52.256;9.356;2023-01-29T02:04:58;101583.41;;;0.17;100.00
40073;BME280;25774;52.256;9.356;2023-01-29T02:07:44;101580.78;;;0.14;100.00
40073;BME280;25774;52.256;9.356;2023-01-29T02:10:31;101589.47;;;0.20;100.00
40073;BME280;25774;52.256;9.356;2023-01-29T02:13:02;101595.63;;;0.36;100.00
40073;BME280;25774;52.256;9.356;2023-01-29T02:15:28;101585.19;;;0.26;100.00
40073;BME280;25774;52.256;9.356;2023-01-29T02:17:53;101580.00;;;0.26;100.00
40073;BME280;25774;52.256;9.356;2023-01-29T02:20:25;101559.84;;;-0.11;100.00
40073;BME280;25774;52.256;9.356;2023-01-29T02:23:15;101600.69;;;0.18;100.00
40073;BME280;25774;52.256;9.356;2023-01-29T02:29:08;101594.66;;;0.20;100.00
40073;BME280;25774;52.256;9.356;2023-01-29T02:40:39;101601.53;;;0.14;100.00
40073;BME280;25774;52.256;9.356;2023-01-29T02:45:48;101604.16;;;0.17;100.00
40073;BME280;25774;52.256;9.356;2023-01-29T02:48:19;101615.22;;;-0.09;100.00
40073;BME280;25774;52.256;9.356;2023-01-29T02:50:59;101630.28;;;0.40;100.00
40073;BME280;25774;52.256;9.356;2023-01-29T02:53:40;101634.75;;;0.64;100.00
40073;BME280;25774;52.256;9.356;2023-01-29T02:56:39;101601.66;;;0.31;100.00
40073;BME280;25774;52.256;9.356;2023-01-29T02:59:13;101601.69;;;0.35;100.00
40073;BME280;25774;52.256;9.356;2023-01-29T03:01:54;101611.31;;;0.56;100.00
40073;BME280;25774;52.256;9.356;2023-01-29T03:04:25;101620.97;;;0.77;100.00
40073;BME280;25774;52.256;9.356;2023-01-29T03:07:05;101603.47;;;0.45;100.00
40073;BME280;25774;52.256;9.356;2023-01-29T03:09:41;101573.06;;;0.26;100.00
40073;BME280;25774;52.256;9.356;2023-01-29T03:12:15;101560.94;;;0.27;100.00
40073;BME280;25774;52.256;9.356;2023-01-29T03:14:54;101561.94;;;0.52;100.00
40073;BME280;25774;52.256;9.356;2023-01-29T03:17:40;101558.53;;;0.65;100.00
40073;BME280;25774;52.256;9.356;2023-01-29T03:20:11;101562.03;;;0.76;100.00
40073;BME280;25774;52.256;9.356;2023-01-29T03:22:43;101536.63;;;0.12;100.00
40073;BME280;25774;52.256;9.356;2023-01-29T03:25:10;101572.31;;;0.47;100.00
40073;BME280;25774;52.256;9.356;2023-01-29T03:27:59;101549.91;;;0.67;100.00
40073;BME280;25774;52.256;9.356;2023-01-29T03:30:56;101549.81;;;0.54;100.00
40073;BME280;25774;52.256;9.356;2023-01-29T03:33:48;101556.88;;;0.81;100.00
40073;BME280;25774;52.256;9.356;2023-01-29T03:36:22;101543.88;;;0.81;100.00
40073;BME280;25774;52.256;9.356;2023-01-29T03:38:51;101539.47;;;0.61;100.00
40073;BME280;25774;52.256;9.356;2023-01-29T03:49:18;101526.44;;;0.49;100.00
40073;BME280;25774;52.256;9.356;2023-01-29T03:57:12;101511.69;;;0.43;100.00
40073;BME280;25774;52.256;9.356;2023-01-29T04:00:09;101529.97;;;0.66;100.00
40073;BME280;25774;52.256;9.356;2023-01-29T04:02:46;101536.94;;;0.89;100.00
40073;BME280;25774;52.256;9.356;2023-01-29T04:05:19;101530.81;;;0.61;100.00
40073;BME280;25774;52.256;9.356;2023-01-29T04:07:46;101495.19;;;0.31;100.00
40073;BME280;25774;52.256;9.356;2023-01-29T04:10:18;101516.16;;;0.77;100.00
40073;BME280;25774;52.256;9.356;2023-01-29T04:12:46;101512.69;;;0.88;100.00
40073;BME280;25774;52.256;9.356;2023-01-29T04:15:15;101496.22;;;0.79;100.00
40073;BME280;25774;52.256;9.356;2023-01-29T04:17:48;101493.66;;;1.05;100.00
40073;BME280;25774;52.256;9.356;2023-01-29T04:20:14;101472.84;;;0.85;100.00
40073;BME280;25774;52.256;9.356;2023-01-29T04:22:47;101462.44;;;0.65;100.00
40073;BME280;25774;52.256;9.356;2023-01-29T04:25:19;101478.06;;;0.85;100.00
40073;BME280;25774;52.256;9.356;2023-01-29T04:28:15;101462.41;;;0.66;100.00
40073;BME280;25774;52.256;9.356;2023-01-29T04:30:52;101436.41;;;0.56;100.00
40073;BME280;25774;52.256;9.356;2023-01-29T04:33:34;101439.03;;;0.73;100.00
40073;BME280;25774;52.256;9.356;2023-01-29T04:36:16;101427.78;;;0.55;100.00
40073;BME280;25774;52.256;9.356;2023-01-29T04:39:24;101437.28;;;0.67;100.00
40073;BME280;25774;52.256;9.356;2023-01-29T04:42:05;101419.97;;;0.55;100.00
40073;BME280;25774;52.256;9.356;2023-01-29T04:44:46;101417.38;;;0.57;100.00
40073;BME280;25774;52.256;9.356;2023-01-29T04:47:23;101420.84;;;0.69;100.00
40073;BME280;25774;52.256;9.356;2023-01-29T04:50:03;101406.16;;;0.61;100.00
40073;BME280;25774;52.256;9.356;2023-01-29T04:55:40;101394.84;;;0.36;100.00
40073;BME280;25774;52.256;9.356;2023-01-29T05:00:41;101395.75;;;0.65;100.00
40073;BME280;25774;52.256;9.356;2023-01-29T05:03:08;101387.06;;;0.48;100.00
40073;BME280;25774;52.256;9.356;2023-01-29T05:05:35;101389.69;;;0.76;100.00
40073;BME280;25774;52.256;9.356;2023-01-29T05:08:04;101374.09;;;0.63;100.00
40073;BME280;25774;52.256;9.356;2023-01-29T05:10:30;101384.50;;;0.76;100.00
40073;BME280;25774;52.256;9.356;2023-01-29T05:13:03;101374.06;;;0.60;100.00
40073;BME280;25774;52.256;9.356;2023-01-29T05:15:55;101377.56;;;0.58;100.00
40073;BME280;25774;52.256;9.356;2023-01-29T05:18:22;101400.09;;;0.94;100.00
40073;BME280;25774;52.256;9.356;2023-01-29T05:20:48;101393.16;;;0.84;100.00
40073;BME280;25774;52.256;9.356;2023-01-29T05:23:15;101390.56;;;0.68;100.00
40073;BME280;25774;52.256;9.356;2023-01-29T05:25:41;101394.88;;;0.69;100.00
40073;BME280;25774;52.256;9.356;2023-01-29T05:28:08;101386.22;;;0.61;100.00
40073;BME280;25774;52.256;9.356;2023-01-29T05:30:43;101393.16;;;0.78;100.00
40073;BME280;25774;52.256;9.356;2023-01-29T05:33:20;101396.63;;;0.72;100.00
40073;BME280;25774;52.256;9.356;2023-01-29T05:35:46;101385.34;;;0.67;100.00
40073;BME280;25774;52.256;9.356;2023-01-29T05:38:13;101386.19;;;0.46;100.00
40073;BME280;25774;52.256;9.356;2023-01-29T05:40:39;101405.28;;;0.73;100.00
40073;BME280;25774;52.256;9.356;2023-01-29T05:43:05;101405.25;;;0.69;100.00
40073;BME280;25774;52.256;9.356;2023-01-29T05:45:38;101406.13;;;0.70;100.00
40073;BME280;25774;52.256;9.356;2023-01-29T05:48:03;101393.16;;;0.55;100.00
40073;BME280;25774;52.256;9.356;2023-01-29T05:50:28;101394.00;;;0.63;100.00
40073;BME280;25774;52.256;9.356;2023-01-29T05:53:00;101396.59;;;0.60;100.00
40073;BME280;25774;52.256;9.356;2023-01-29T05:55:27;101391.41;;;0.58;100.00
40073;BME280;25774;52.256;9.356;2023-01-29T05:57:53;101387.94;;;0.59;100.00
40073;BME280;25774;52.256;9.356;2023-01-29T06:00:19;101385.31;;;0.50;100.00
40073;BME280;25774;52.256;9.356;2023-01-29T06:02:44;101405.31;;;0.86;100.00
40073;BME280;25774;52.256;9.356;2023-01-29T06:05:10;101404.41;;;0.66;100.00
40073;BME280;25774;52.256;9.356;2023-01-29T06:07:35;101401.78;;;0.63;100.00
40073;BME280;25774;52.256;9.356;2023-01-29T06:10:02;101399.19;;;0.63;100.00
40073;BME280;25774;52.256;9.356;2023-01-29T06:12:27;101401.81;;;0.69;100.00
40073;BME280;25774;52.256;9.356;2023-01-29T06:14:53;101386.16;;;0.44;100.00
40073;BME280;25774;52.256;9.356;2023-01-29T06:17:18;101383.56;;;0.29;100.00
40073;BME280;25774;52.256;9.356;2023-01-29T06:19:44;101413.88;;;0.47;100.00
40073;BME280;25774;52.256;9.356;2023-01-29T06:22:09;101406.06;;;0.35;100.00
40073;BME280;25774;52.256;9.356;2023-01-29T06:24:34;101419.09;;;0.59;100.00
40073;BME280;25774;52.256;9.356;2023-01-29T06:27:00;101420.84;;;0.63;100.00
40073;BME280;25774;52.256;9.356;2023-01-29T06:29:25;101409.56;;;0.54;100.00
40073;BME280;25774;52.256;9.356;2023-01-29T06:31:50;101423.44;;;0.57;100.00
40073;BME280;25774;52.256;9.356;2023-01-29T06:34:15;101413.88;;;0.47;100.00
40073;BME280;25774;52.256;9.356;2023-01-29T06:36:41;101406.94;;;0.44;100.00
40073;BME280;25774;52.256;9.356;2023-01-29T06:39:06;101428.63;;;0.56;100.00
40073;BME280;25774;52.256;9.356;2023-01-29T06:41:32;101435.56;;;0.60;100.00
40073;BME280;25774;52.256;9.356;2023-01-29T06:43:58;101432.09;;;0.49;100.00
40073;BME280;25774;52.256;9.356;2023-01-29T06:46:23;101429.53;;;0.64;100.00
40073;BME280;25774;52.256;9.356;2023-01-29T06:48:48;101429.47;;;0.47;100.00
40073;BME280;25774;52.256;9.356;2023-01-29T06:51:15;101420.84;;;0.48;100.00
40073;BME280;25774;52.256;9.356;2023-01-29T06:53:40;101442.50;;;0.61;100.00
40073;BME280;25774;52.256;9.356;2023-01-29T06:56:06;101440.78;;;0.72;100.00
40073;BME280;25774;52.256;9.356;2023-01-29T06:58:35;101434.72;;;0.61;100.00
40073;BME280;25774;52.256;9.356;2023-01-29T07:01:05;101452.00;;;0.56;100.00
40073;BME280;25774;52.256;9.356;2023-01-29T07:03:31;101465.88;;;0.68;100.00
40073;BME280;25774;52.256;9.356;2023-01-29T07:05:57;101465.06;;;0.85;100.00
40073;BME280;25774;52.256;9.356;2023-01-29T07:08:22;101465.06;;;0.74;100.00
40073;BME280;25774;52.256;9.356;2023-01-29T07:10:48;101485.88;;;1.06;100.00
40073;BME280;25774;52.256;9.356;2023-01-29T07:13:14;101463.31;;;0.72;100.00
40073;BME280;25774;52.256;9.356;2023-01-29T07:15:40;101458.97;;;0.69;100.00
40073;BME280;25774;52.256;9.356;2023-01-29T07:18:05;101454.53;;;0.34;100.00
40073;BME280;25774;52.256;9.356;2023-01-29T07:20:39;101472.78;;;0.51;100.00
40073;BME280;25774;52.256;9.356;2023-01-29T07:23:06;101459.72;;;0.37;100.00
40073;BME280;25774;52.256;9.356;2023-01-29T07:25:33;101474.50;;;0.46;100.00
40073;BME280;25774;52.256;9.356;2023-01-29T07:28:00;101493.56;;;0.63;100.00
40073;BME280;25774;52.256;9.356;2023-01-29T07:30:25;101497.03;;;0.56;100.00
40073;BME280;25774;52.256;9.356;2023-01-29T07:32:51;101497.88;;;0.51;100.00
40073;BME280;25774;52.256;9.356;2023-01-29T07:35:16;101499.66;;;0.64;100.00
40073;BME280;25774;52.256;9.356;2023-01-29T07:37:41;101486.59;;;0.47;100.00
40073;BME280;25774;52.256;9.356;2023-01-29T07:40:07;101464.09;;;0.46;100.00
40073;BME280;25774;52.256;9.356;2023-01-29T07:42:36;101460.66;;;0.49;100.00
40073;BME280;25774;52.256;9.356;2023-01-29T07:45:03;101468.47;;;0.58;100.00
40073;BME280;25774;52.256;9.356;2023-01-29T07:47:30;101491.03;;;0.85;100.00
40073;BME280;25774;52.256;9.356;2023-01-29T07:49:55;101481.50;;;0.72;100.00
40073;BME280;25774;52.256;9.356;2023-01-29T07:52:20;101478.84;;;0.67;100.00
40073;BME280;25774;52.256;9.356;2023-01-29T07:54:45;101458.06;;;0.49;100.00
40073;BME280;25774;52.256;9.356;2023-01-29T07:57:11;101456.31;;;0.49;100.00
40073;BME280;25774;52.256;9.356;2023-01-29T07:59:36;101452.00;;;0.51;100.00
40073;BME280;25774;52.256;9.356;2023-01-29T08:02:01;101447.66;;;0.42;100.00
40073;BME280;25774;52.256;9.356;2023-01-29T08:04:27;101447.69;;;0.73;100.00
40073;BME280;25774;52.256;9.356;2023-01-29T08:06:52;101434.72;;;0.64;100.00
40073;BME280;25774;52.256;9.356;2023-01-29T08:09:17;101426.91;;;0.61;100.00
40073;BME280;25774;52.256;9.356;2023-01-29T08:11:43;101439.06;;;0.82;100.00
40073;BME280;25774;52.256;9.356;2023-01-29T08:14:08;101452.94;;;0.87;100.00
40073;BME280;25774;52.256;9.356;2023-01-29T08:16:36;101441.69;;;0.86;100.00
40073;BME280;25774;52.256;9.356;2023-01-29T08:19:03;101429.53;;;0.75;100.00
40073;BME280;25774;52.256;9.356;2023-01-29T08:21:28;101437.34;;;0.84;100.00
40073;BME280;25774;52.256;9.356;2023-01-29T08:23:53;101441.69;;;0.83;100.00
40073;BME280;25774;52.256;9.356;2023-01-29T08:26:19;101433.00;;;0.67;100.00
40073;BME280;25774;52.256;9.356;2023-01-29T08:28:44;101444.28;;;0.97;100.00
40073;BME280;25774;52.256;9.356;2023-01-29T08:31:17;101447.72;;;0.81;100.00
40073;BME280;25774;52.256;9.356;2023-01-29T08:33:44;101436.44;;;0.66;100.00
40073;BME280;25774;52.256;9.356;2023-01-29T08:36:11;101451.19;;;0.81;100.00
40073;BME280;25774;52.256;9.356;2023-01-29T08:38:36;101432.97;;;0.69;100.00
40073;BME280;25774;52.256;9.356;2023-01-29T08:41:02;101447.72;;;0.81;100.00
40073;BME280;25774;52.256;9.356;2023-01-29T08:43:27;101436.41;;;0.57;100.00
40073;BME280;25774;52.256;9.356;2023-01-29T08:45:52;101446.91;;;1.03;100.00
40073;BME280;25774;52.256;9.356;2023-01-29T08:48:18;101420.84;;;0.69;100.00
40073;BME280;25774;52.256;9.356;2023-01-29T08:50:43;101427.78;;;0.80;100.00
40073;BME280;25774;52.256;9.356;2023-01-29T08:53:09;101434.75;;;0.84;100.00
40073;BME280;25774;52.256;9.356;2023-01-29T08:55:36;101431.28;;;0.92;100.00
40073;BME280;25774;52.256;9.356;2023-01-29T08:58:03;101439.06;;;1.02;100.00
40073;BME280;25774;52.256;9.356;2023-01-29T09:00:29;101420.88;;;0.74;100.00
40073;BME280;25774;52.256;9.356;2023-01-29T09:02:55;101417.44;;;1.00;100.00
40073;BME280;25774;52.256;9.356;2023-01-29T09:05:20;101410.50;;;0.89;100.00
40073;BME280;25774;52.256;9.356;2023-01-29T09:07:45;101414.84;;;1.12;100.00
40073;BME280;25774;52.256;9.356;2023-01-29T09:10:11;101410.50;;;1.02;100.00
40073;BME280;25774;52.256;9.356;2023-01-29T09:12:36;101420.00;;;1.24;100.00
40073;BME280;25774;52.256;9.356;2023-01-29T09:15:01;101404.41;;;0.98;100.00
40073;BME280;25774;52.256;9.356;2023-01-29T09:17:28;101407.91;;;0.89;100.00
40073;BME280;25774;52.256;9.356;2023-01-29T09:19:59;101413.97;;;0.96;100.00
40073;BME280;25774;52.256;9.356;2023-01-29T09:22:25;101401.81;;;0.95;100.00
40073;BME280;25774;52.256;9.356;2023-01-29T09:24:51;101401.84;;;1.03;100.00
40073;BME280;25774;52.256;9.356;2023-01-29T09:27:16;101405.31;;;1.03;100.00
40073;BME280;25774;52.256;9.356;2023-01-29T09:29:41;101396.66;;;1.00;100.00
40073;BME280;25774;52.256;9.356;2023-01-29T09:32:07;101400.09;;;1.19;100.00
40073;BME280;25774;52.256;9.356;2023-01-29T09:34:33;101391.41;;;1.21;100.00
40073;BME280;25774;52.256;9.356;2023-01-29T09:36:58;101387.94;;;1.42;100.00
40073;BME280;25774;52.256;9.356;2023-01-29T09:39:24;101387.91;;;1.45;100.00
40073;BME280;25774;52.256;9.356;2023-01-29T09:42:23;101368.00;;;1.47;100.00
40073;BME280;25774;52.256;9.356;2023-01-29T09:44:50;101378.34;;;1.67;100.00
40073;BME280;25774;52.256;9.356;2023-01-29T09:47:19;101372.25;;;1.70;100.00
40073;BME280;25774;52.256;9.356;2023-01-29T09:49:49;101367.88;;;1.82;100.00
40073;BME280;25774;52.256;9.356;2023-01-29T09:52:19;101356.63;;;1.73;100.00
40073;BME280;25774;52.256;9.356;2023-01-29T09:55:11;101361.81;;;1.74;100.00
40073;BME280;25774;52.256;9.356;2023-01-29T09:57:48;101347.13;;;1.59;100.00
40073;BME280;25774;52.256;9.356;2023-01-29T10:00:24;101331.56;;;1.39;100.00
40073;BME280;25774;52.256;9.356;2023-01-29T10:02:58;101346.22;;;1.79;100.00
40073;BME280;25774;52.256;9.356;2023-01-29T10:05:41;101328.84;;;1.76;100.00
40073;BME280;25774;52.256;9.356;2023-01-29T10:08:39;101315.81;;;1.78;100.00
40073;BME280;25774;52.256;9.356;2023-01-29T10:11:16;101314.03;;;1.88;100.00
40073;BME280;25774;52.256;9.356;2023-01-29T10:25:11;101281.13;;;1.77;100.00
40073;BME280;25774;52.256;9.356;2023-01-29T10:27:39;101299.25;;;1.97;100.00
40073;BME280;25774;52.256;9.356;2023-01-29T10:32:51;101305.16;;;2.27;100.00
40073;BME280;25774;52.256;9.356;2023-01-29T10:35:23;101289.69;;;1.98;100.00
40073;BME280;25774;52.256;9.356;2023-01-29T10:37:53;101305.34;;;1.95;100.00
40073;BME280;25774;52.256;9.356;2023-01-29T10:40:22;101301.13;;;1.68;100.00
40073;BME280;25774;52.256;9.356;2023-01-29T10:50:51;101257.03;;;1.38;100.00
40073;BME280;25774;52.256;9.356;2023-01-29T10:53:41;101282.13;;;1.49;100.00
40073;BME280;25774;52.256;9.356;2023-01-29T10:56:42;101275.16;;;1.58;100.00
40073;BME280;25774;52.256;9.356;2023-01-29T10:59:22;101275.94;;;1.77;100.00
40073;BME280;25774;52.256;9.356;2023-01-29T11:01:48;101269.81;;;1.81;100.00
40073;BME280;25774;52.256;9.356;2023-01-29T11:04:14;101261.16;;;1.84;100.00
40073;BME280;25774;52.256;9.356;2023-01-29T11:06:39;101248.19;;;1.79;100.00
40073;BME280;25774;52.256;9.356;2023-01-29T11:09:41;101246.31;;;1.98;100.00
40073;BME280;25774;52.256;9.356;2023-01-29T11:12:09;101235.94;;;1.91;100.00
40073;BME280;25774;52.256;9.356;2023-01-29T11:17:05;101237.75;;;1.79;100.00
40073;BME280;25774;52.256;9.356;2023-01-29T11:19:43;101242.00;;;1.91;100.00
40073;BME280;25774;52.256;9.356;2023-01-29T11:22:19;101250.56;;;2.12;100.00
40073;BME280;25774;52.256;9.356;2023-01-29T11:24:46;101242.69;;;2.19;100.00
40073;BME280;25774;52.256;9.356;2023-01-29T11:27:32;101241.66;;;2.39;100.00
40073;BME280;25774;52.256;9.356;2023-01-29T11:29:59;101227.72;;;2.47;100.00
40073;BME280;25774;52.256;9.356;2023-01-29T11:32:29;101189.81;;;2.09;100.00
40073;BME280;25774;52.256;9.356;2023-01-29T11:37:45;101183.47;;;2.46;100.00
40073;BME280;25774;52.256;9.356;2023-01-29T11:40:35;101184.38;;;2.40;100.00
40073;BME280;25774;52.256;9.356;2023-01-29T11:43:20;101175.13;;;2.01;100.00
40073;BME280;25774;52.256;9.356;2023-01-29T11:45:49;101176.00;;;2.00;100.00
40073;BME280;25774;52.256;9.356;2023-01-29T11:48:17;101170.78;;;2.03;100.00
40073;BME280;25774;52.256;9.356;2023-01-29T11:50:51;101188.88;;;2.21;100.00
40073;BME280;25774;52.256;9.356;2023-01-29T11:55:55;101156.63;;;2.35;100.00
40073;BME280;25774;52.256;9.356;2023-01-29T11:58:27;101179.81;;;2.62;100.00
40073;BME280;25774;52.256;9.356;2023-01-29T12:00:54;101154.56;;;2.67;100.00
40073;BME280;25774;52.256;9.356;2023-01-29T12:08:32;101115.22;;;2.08;100.00
40073;BME280;25774;52.256;9.356;2023-01-29T12:13:33;101114.31;;;2.11;100.00
40073;BME280;25774;52.256;9.356;2023-01-29T12:16:14;101129.00;;;2.17;100.00
40073;BME280;25774;52.256;9.356;2023-01-29T12:21:49;101120.28;;;2.24;100.00
40073;BME280;25774;52.256;9.356;2023-01-29T12:24:27;101109.72;;;2.36;100.00
40073;BME280;25774;52.256;9.356;2023-01-29T12:27:18;101103.56;;;2.45;100.00
40073;BME280;25774;52.256;9.356;2023-01-29T12:29:55;101095.72;;;2.49;100.00
40073;BME280;25774;52.256;9.356;2023-01-29T12:32:48;101110.06;;;2.83;100.00
40073;BME280;25774;52.256;9.356;2023-01-29T12:35:30;101087.59;;;2.74;100.00
40073;BME280;25774;52.256;9.356;2023-01-29T12:38:21;101076.19;;;2.83;100.00
40073;BME280;25774;52.256;9.356;2023-01-29T12:40:54;101065.13;;;2.65;100.00
40073;BME280;25774;52.256;9.356;2023-01-29T12:43:28;101075.63;;;2.59;100.00
40073;BME280;25774;52.256;9.356;2023-01-29T12:45:58;101074.91;;;2.46;100.00
40073;BME280;25774;52.256;9.356;2023-01-29T12:48:33;101098.13;;;2.66;100.00
40073;BME280;25774;52.256;9.356;2023-01-29T12:51:22;101068.81;;;2.46;100.00
40073;BME280;25774;52.256;9.356;2023-01-29T12:53:58;101085.03;;;2.68;100.00
40073;BME280;25774;52.256;9.356;2023-01-29T12:56:29;101055.09;;;2.30;100.00
40073;BME280;25774;52.256;9.356;2023-01-29T12:58:59;101075.69;;;2.51;100.00
40073;BME280;25774;52.256;9.356;2023-01-29T13:01:33;101087.81;;;2.54;100.00
40073;BME280;25774;52.256;9.356;2023-01-29T13:04:04;101075.22;;;2.17;100.00
40073;BME280;25774;52.256;9.356;2023-01-29T13:06:39;101082.75;;;2.42;100.00
40073;BME280;25774;52.256;9.356;2023-01-29T13:09:27;101082.84;;;2.34;100.00
40073;BME280;25774;52.256;9.356;2023-01-29T13:12:07;101092.47;;;2.27;100.00
40073;BME280;25774;52.256;9.356;2023-01-29T13:14:50;101064.03;;;2.06;100.00
40073;BME280;25774;52.256;9.356;2023-01-29T13:17:25;101082.13;;;2.17;100.00
40073;BME280;25774;52.256;9.356;2023-01-29T13:19:56;101076.78;;;2.32;100.00
40073;BME280;25774;52.256;9.356;2023-01-29T13:22:28;101070.69;;;2.35;100.00
40073;BME280;25774;52.256;9.356;2023-01-29T13:24:57;101060.31;;;2.30;100.00
40073;BME280;25774;52.256;9.356;2023-01-29T13:27:25;101053.34;;;2.33;100.00
40073;BME280;25774;52.256;9.356;2023-01-29T13:29:51;101060.16;;;2.42;100.00
40073;BME280;25774;52.256;9.356;2023-01-29T13:32:23;101053.25;;;2.40;100.00
40073;BME280;25774;52.256;9.356;2023-01-29T13:34:52;101057.47;;;2.50;100.00
40073;BME280;25774;52.256;9.356;2023-01-29T13:37:34;101029.09;;;2.25;100.00
40073;BME280;25774;52.256;9.356;2023-01-29T13:40:03;101034.13;;;2.41;100.00
40073;BME280;25774;52.256;9.356;2023-01-29T13:42:41;101045.22;;;2.60;100.00
40073;BME280;25774;52.256;9.356;2023-01-29T13:45:08;101048.59;;;2.66;100.00
40073;BME280;25774;52.256;9.356;2023-01-29T13:47:41;101037.66;;;2.35;100.00
40073;BME280;25774;52.256;9.356;2023-01-29T13:50:28;101045.44;;;2.40;100.00
40073;BME280;25774;52.256;9.356;2023-01-29T13:52:58;101029.84;;;2.35;100.00
40073;BME280;25774;52.256;9.356;2023-01-29T13:55:37;101053.84;;;2.63;100.00
40073;BME280;25774;52.256;9.356;2023-01-29T14:00:55;101023.84;;;2.28;100.00
40073;BME280;25774;52.256;9.356;2023-01-29T14:13:46;101031.69;;;2.27;100.00
40073;BME280;25774;52.256;9.356;2023-01-29T14:18:50;101041.22;;;2.26;100.00
40073;BME280;25774;52.256;9.356;2023-01-29T14:21:23;101023.28;;;2.02;100.00
40073;BME280;25774;52.256;9.356;2023-01-29T14:23:54;101040.47;;;2.17;100.00
40073;BME280;25774;52.256;9.356;2023-01-29T14:29:05;101035.56;;;1.88;100.00
40073;BME280;25774;52.256;9.356;2023-01-29T14:31:51;101039.16;;;1.74;100.00
40073;BME280;25774;52.256;9.356;2023-01-29T14:34:19;101046.81;;;1.93;100.00
40073;BME280;25774;52.256;9.356;2023-01-29T14:36:47;101026.16;;;1.76;100.00
40073;BME280;25774;52.256;9.356;2023-01-29T14:39:22;101047.69;;;1.90;100.00
40073;BME280;25774;52.256;9.356;2023-01-29T14:41:50;101046.81;;;1.88;100.00
40073;BME280;25774;52.256;9.356;2023-01-29T14:53:04;101042.81;;;1.53;100.00